createdAt,value
2018-01-24T00:01:01.393Z,96.13
2018-01-24T00:02:06.477Z,96.17
2018-01-24T00:03:10.655Z,96.23
2018-01-24T00:04:15.514Z,96.20
2018-01-24T00:05:19.752Z,96.16
2018-01-24T00:06:23.868Z,95.90
2018-01-24T00:07:28.012Z,95.88
2018-01-24T00:08:32.188Z,95.94
2018-01-24T00:09:36.318Z,95.95
2018-01-24T00:10:41.607Z,96.04
2018-01-24T00:11:45.720Z,95.93
2018-01-24T00:12:50.796Z,96.08
2018-01-24T00:13:55.068Z,95.82
2018-01-24T00:14:59.776Z,95.76
2018-01-24T00:16:04.231Z,95.83
2018-01-24T00:17:08.653Z,95.80
2018-01-24T00:18:12.768Z,95.86
2018-01-24T00:19:17.796Z,95.92
2018-01-24T00:20:21.880Z,95.89
2018-01-24T00:21:26.016Z,95.97
2018-01-24T00:22:30.129Z,95.95
2018-01-24T00:23:34.569Z,96.00
2018-01-24T00:24:38.760Z,95.97
2018-01-24T00:25:42.888Z,95.95
2018-01-24T00:26:47.112Z,95.98
2018-01-24T00:27:52.031Z,95.99
2018-01-24T00:28:56.797Z,95.95
2018-01-24T00:30:00.886Z,96.00
2018-01-24T00:31:05.413Z,95.96
2018-01-24T00:32:10.055Z,96.04
2018-01-24T00:33:14.248Z,95.97
2018-01-24T00:34:18.371Z,95.97
2018-01-24T00:35:22.665Z,95.85
2018-01-24T00:36:27.078Z,95.85
2018-01-24T00:37:31.243Z,95.87
2018-01-24T00:38:35.462Z,95.86
2018-01-24T00:39:40.188Z,95.88
2018-01-24T00:40:44.410Z,95.89
2018-01-24T00:41:49.104Z,95.86
2018-01-24T00:42:54.604Z,96.02
2018-01-24T00:43:59.519Z,95.94
2018-01-24T00:45:06.449Z,96.01
2018-01-24T00:46:11.844Z,96.00
2018-01-24T00:47:17.295Z,95.99
2018-01-24T00:48:21.509Z,95.94
2018-01-24T00:49:26.212Z,95.98
2018-01-24T00:50:30.601Z,96.03
2018-01-24T00:51:34.925Z,96.04
2018-01-24T00:52:49.510Z,96.02
2018-01-24T00:53:53.634Z,96.08
2018-01-24T00:54:59.327Z,95.94
2018-01-24T00:56:04.734Z,95.95
2018-01-24T00:57:10.040Z,95.87
2018-01-24T00:58:14.129Z,95.89
2018-01-24T00:59:18.651Z,95.77
2018-01-24T01:00:23.807Z,95.73
2018-01-24T01:01:29.020Z,95.58
2018-01-24T01:02:33.561Z,95.59
2018-01-24T01:03:37.936Z,95.48
2018-01-24T01:04:42.139Z,95.51
2018-01-24T01:05:46.285Z,95.41
2018-01-24T01:06:51.054Z,95.50
2018-01-24T01:07:57.718Z,95.55
2018-01-24T01:09:03.022Z,95.61
2018-01-24T01:10:10.441Z,95.59
2018-01-24T01:11:14.560Z,95.61
2018-01-24T01:12:18.760Z,95.62
2018-01-24T01:13:22.914Z,95.68
2018-01-24T01:14:27.764Z,95.75
2018-01-24T01:15:32.071Z,95.82
2018-01-24T01:16:36.173Z,95.87
2018-01-24T01:17:40.935Z,95.88
2018-01-24T01:18:45.179Z,95.91
2018-01-24T01:19:49.812Z,95.95
2018-01-24T01:20:54.251Z,96.09
2018-01-24T01:21:58.760Z,95.94
2018-01-24T01:23:03.011Z,96.00
2018-01-24T01:24:07.084Z,95.99
2018-01-24T01:25:11.223Z,96.04
2018-01-24T01:26:15.672Z,96.03
2018-01-24T01:27:19.875Z,96.03
2018-01-24T01:28:24.656Z,96.16
2018-01-24T01:29:28.743Z,96.25
2018-01-24T01:30:33.173Z,96.14
2018-01-24T01:31:37.472Z,96.22
2018-01-24T01:32:41.863Z,96.18
2018-01-24T01:33:46.052Z,96.22
2018-01-24T01:34:50.943Z,96.30
2018-01-24T01:35:55.112Z,96.37
2018-01-24T01:36:59.760Z,96.45
2018-01-24T01:38:03.928Z,96.52
2018-01-24T01:39:08.359Z,96.55
2018-01-24T01:40:12.485Z,96.53
2018-01-24T01:41:16.566Z,96.51
2018-01-24T01:42:20.764Z,96.55
2018-01-24T01:43:24.952Z,96.61
2018-01-24T01:44:29.160Z,96.51
2018-01-24T01:45:34.361Z,96.50
2018-01-24T01:46:38.596Z,96.48
2018-01-24T01:47:43.272Z,96.37
2018-01-24T01:48:48.163Z,96.28
2018-01-24T01:49:53.364Z,96.28
2018-01-24T01:50:58.281Z,96.33
2018-01-24T01:52:02.874Z,96.31
2018-01-24T01:53:07.056Z,96.36
2018-01-24T01:54:11.304Z,96.25
2018-01-24T01:55:16.422Z,96.11
2018-01-24T01:56:20.492Z,96.07
2018-01-24T01:57:24.623Z,96.02
2018-01-24T01:58:29.780Z,95.93
2018-01-24T01:59:33.948Z,95.87
2018-01-24T02:00:38.324Z,95.90
2018-01-24T02:01:42.915Z,95.83
2018-01-24T02:02:47.848Z,95.85
2018-01-24T02:03:52.512Z,95.80
2018-01-24T02:04:56.996Z,95.82
2018-01-24T02:06:01.121Z,95.76
2018-01-24T02:07:05.313Z,95.62
2018-01-24T02:08:09.383Z,95.59
2018-01-24T02:09:13.477Z,95.58
2018-01-24T02:10:17.564Z,95.46
2018-01-24T02:11:21.642Z,95.47
2018-01-24T02:12:25.887Z,95.42
2018-01-24T02:13:30.005Z,95.46
2018-01-24T02:14:34.128Z,95.34
2018-01-24T02:15:38.704Z,95.25
2018-01-24T02:16:44.496Z,95.23
2018-01-24T02:17:50.619Z,95.19
2018-01-24T02:18:54.712Z,95.23
2018-01-24T02:19:59.279Z,95.23
2018-01-24T02:21:03.678Z,95.24
2018-01-24T02:22:07.753Z,95.30
2018-01-24T02:23:11.852Z,95.33
2018-01-24T02:24:16.015Z,95.35
2018-01-24T02:25:20.257Z,95.40
2018-01-24T02:26:24.347Z,95.41
2018-01-24T02:27:28.762Z,95.44
2018-01-24T02:28:32.892Z,95.50
2018-01-24T02:29:36.992Z,95.50
2018-01-24T02:30:41.313Z,95.51
2018-01-24T02:31:45.403Z,95.46
2018-01-24T02:32:49.491Z,95.48
2018-01-24T02:33:54.033Z,95.52
2018-01-24T02:34:58.153Z,95.50
2018-01-24T02:36:02.260Z,95.38
2018-01-24T02:37:06.432Z,95.34
2018-01-24T02:38:19.252Z,95.40
2018-01-24T02:39:23.676Z,95.22
2018-01-24T02:40:27.841Z,95.30
2018-01-24T02:41:31.954Z,95.18
2018-01-24T02:42:36.060Z,95.11
2018-01-24T02:43:40.188Z,95.00
2018-01-24T02:44:44.290Z,95.06
2018-01-24T02:45:49.921Z,95.08
2018-01-24T02:46:54.408Z,95.09
2018-01-24T02:47:58.854Z,95.14
2018-01-24T02:49:02.932Z,95.11
2018-01-24T02:50:07.039Z,95.09
2018-01-24T02:51:11.437Z,95.05
2018-01-24T02:52:15.626Z,95.04
2018-01-24T02:53:19.724Z,95.08
2018-01-24T02:54:23.843Z,95.14
2018-01-24T02:55:27.938Z,94.80
2018-01-24T02:56:32.083Z,94.79
2018-01-24T02:57:36.532Z,94.75
2018-01-24T02:58:40.655Z,94.75
2018-01-24T02:59:44.775Z,94.83
2018-01-24T03:00:49.340Z,94.92
2018-01-24T03:01:53.486Z,94.96
2018-01-24T03:02:58.559Z,94.89
2018-01-24T03:04:02.969Z,94.88
2018-01-24T03:05:07.092Z,94.87
2018-01-24T03:06:11.240Z,94.78
2018-01-24T03:07:15.356Z,94.75
2018-01-24T03:08:19.440Z,94.74
2018-01-24T03:09:24.053Z,94.69
2018-01-24T03:10:28.976Z,94.64
2018-01-24T03:11:33.463Z,94.59
2018-01-24T03:12:37.568Z,94.46
2018-01-24T03:13:41.672Z,94.55
2018-01-24T03:14:46.011Z,94.53
2018-01-24T03:15:50.256Z,94.46
2018-01-24T03:16:54.395Z,94.41
2018-01-24T03:17:58.475Z,94.42
2018-01-24T03:19:02.594Z,94.44
2018-01-24T03:20:06.933Z,94.50
2018-01-24T03:21:11.128Z,94.42
2018-01-24T03:22:15.190Z,94.46
2018-01-24T03:23:19.304Z,94.40
2018-01-24T03:24:24.077Z,94.29
2018-01-24T03:25:30.672Z,94.16
2018-01-24T03:26:34.816Z,94.10
2018-01-24T03:27:39.042Z,93.84
2018-01-24T03:28:43.552Z,93.75
2018-01-24T03:29:48.412Z,93.79
2018-01-24T03:30:52.769Z,93.93
2018-01-24T03:31:57.115Z,93.95
2018-01-24T03:33:01.810Z,94.03
2018-01-24T03:34:06.134Z,94.06
2018-01-24T03:35:10.621Z,93.99
2018-01-24T03:36:14.723Z,94.00
2018-01-24T03:37:18.828Z,93.76
2018-01-24T03:38:23.123Z,93.83
2018-01-24T03:39:27.250Z,93.78
2018-01-24T03:40:31.370Z,93.90
2018-01-24T03:41:35.559Z,93.74
2018-01-24T03:42:39.694Z,93.84
2018-01-24T03:43:43.793Z,93.65
2018-01-24T03:44:47.883Z,93.73
2018-01-24T03:45:52.866Z,93.78
2018-01-24T03:46:58.445Z,93.87
2018-01-24T03:48:02.721Z,93.83
2018-01-24T03:49:06.780Z,93.79
2018-01-24T03:50:10.922Z,93.96
2018-01-24T03:51:15.146Z,93.96
2018-01-24T03:52:19.295Z,94.06
2018-01-24T03:53:23.814Z,94.05
2018-01-24T03:54:27.862Z,94.08
2018-01-24T03:55:32.078Z,94.12
2018-01-24T03:56:36.228Z,93.98
2018-01-24T03:57:40.461Z,93.90
2018-01-24T03:58:44.583Z,93.72
2018-01-24T03:59:48.991Z,93.68
2018-01-24T04:00:53.388Z,93.75
2018-01-24T04:01:58.181Z,93.81
2018-01-24T04:03:02.375Z,93.88
2018-01-24T04:04:06.446Z,93.83
2018-01-24T04:05:10.539Z,93.88
2018-01-24T04:06:15.066Z,93.89
2018-01-24T04:07:19.217Z,93.87
2018-01-24T04:08:23.357Z,93.86
2018-01-24T04:09:27.512Z,93.83
2018-01-24T04:10:31.615Z,93.77
2018-01-24T04:11:36.213Z,93.69
2018-01-24T04:12:40.607Z,93.59
2018-01-24T04:13:44.835Z,93.56
2018-01-24T04:14:48.928Z,93.55
2018-01-24T04:15:53.584Z,93.58
2018-01-24T04:16:57.665Z,93.44
2018-01-24T04:18:01.751Z,93.52
2018-01-24T04:19:06.304Z,93.42
2018-01-24T04:20:10.557Z,93.44
2018-01-24T04:21:14.632Z,93.41
2018-01-24T04:22:18.727Z,93.35
2018-01-24T04:23:22.807Z,93.31
2018-01-24T04:24:26.949Z,93.22
2018-01-24T04:25:31.433Z,93.29
2018-01-24T04:26:35.601Z,93.18
2018-01-24T04:27:39.756Z,93.21
2018-01-24T04:28:43.860Z,93.28
2018-01-24T04:29:48.022Z,93.32
2018-01-24T04:30:52.540Z,93.46
2018-01-24T04:31:56.650Z,93.45
2018-01-24T04:33:00.761Z,93.47
2018-01-24T04:34:04.878Z,93.55
2018-01-24T04:35:09.186Z,93.36
2018-01-24T04:36:13.271Z,93.18
2018-01-24T04:37:17.456Z,93.13
2018-01-24T04:38:21.936Z,92.92
2018-01-24T04:39:26.108Z,92.82
2018-01-24T04:40:30.220Z,92.81
2018-01-24T04:41:37.078Z,92.82
2018-01-24T04:42:41.167Z,92.90
2018-01-24T04:43:45.228Z,92.86
2018-01-24T04:44:49.760Z,92.82
2018-01-24T04:45:54.204Z,92.71
2018-01-24T04:46:59.442Z,92.77
2018-01-24T04:48:03.572Z,92.71
2018-01-24T04:49:07.660Z,92.82
2018-01-24T04:50:12.333Z,92.49
2018-01-24T04:51:16.872Z,92.43
2018-01-24T04:52:20.948Z,92.55
2018-01-24T04:53:25.048Z,92.75
2018-01-24T04:54:29.250Z,92.55
2018-01-24T04:55:33.357Z,92.60
2018-01-24T04:56:37.471Z,92.51
2018-01-24T04:57:41.671Z,92.64
2018-01-24T04:58:46.639Z,92.45
2018-01-24T04:59:50.874Z,92.30
2018-01-24T05:00:55.821Z,92.57
2018-01-24T05:02:00.207Z,92.29
2018-01-24T05:03:04.718Z,92.27
2018-01-24T05:04:09.187Z,92.15
2018-01-24T05:05:13.447Z,91.93
2018-01-24T05:06:19.285Z,92.04
2018-01-24T05:07:23.488Z,91.93
2018-01-24T05:08:27.734Z,92.11
2018-01-24T05:09:34.753Z,92.20
2018-01-24T05:10:39.297Z,92.07
2018-01-24T05:11:43.488Z,92.06
2018-01-24T05:12:48.457Z,92.04
2018-01-24T05:13:52.721Z,92.01
2018-01-24T05:14:56.882Z,91.77
2018-01-24T05:16:02.171Z,91.96
2018-01-24T05:17:06.367Z,91.93
2018-01-24T05:18:10.579Z,91.81
2018-01-24T05:19:14.771Z,91.67
2018-01-24T05:20:19.388Z,91.47
2018-01-24T05:21:23.687Z,91.54
2018-01-24T05:22:27.928Z,91.24
2018-01-24T05:23:32.048Z,91.36
2018-01-24T05:24:36.246Z,91.38
2018-01-24T05:25:40.817Z,91.47
2018-01-24T05:26:44.904Z,91.51
2018-01-24T05:27:49.649Z,91.21
2018-01-24T05:28:53.763Z,91.37
2018-01-24T05:29:57.908Z,91.27
2018-01-24T05:31:02.172Z,91.33
2018-01-24T05:32:06.265Z,91.13
2018-01-24T05:33:10.414Z,91.05
2018-01-24T05:34:14.871Z,91.16
2018-01-24T05:35:19.041Z,91.18
2018-01-24T05:36:23.164Z,91.12
2018-01-24T05:37:27.240Z,90.86
2018-01-24T05:38:31.392Z,90.80
2018-01-24T05:39:35.544Z,90.93
2018-01-24T05:40:39.669Z,90.73
2018-01-24T05:41:43.820Z,90.60
2018-01-24T05:42:49.110Z,90.58
2018-01-24T05:43:53.221Z,90.59
2018-01-24T05:44:58.373Z,90.64
2018-01-24T05:46:03.040Z,90.42
2018-01-24T05:47:07.176Z,90.47
2018-01-24T05:48:11.267Z,90.53
2018-01-24T05:49:15.356Z,90.45
2018-01-24T05:50:19.580Z,90.55
2018-01-24T05:51:23.731Z,90.62
2018-01-24T05:52:28.162Z,90.31
2018-01-24T05:53:32.288Z,90.43
2018-01-24T05:54:36.528Z,90.30
2018-01-24T05:55:40.610Z,90.24
2018-01-24T05:56:44.745Z,90.30
2018-01-24T05:57:49.938Z,90.53
2018-01-24T05:58:54.051Z,90.16
2018-01-24T05:59:59.113Z,90.22
2018-01-24T06:01:03.555Z,90.46
2018-01-24T06:02:08.111Z,90.15
2018-01-24T06:03:12.260Z,90.41
2018-01-24T06:04:16.704Z,90.40
2018-01-24T06:05:20.904Z,90.59
2018-01-24T06:06:25.008Z,90.81
2018-01-24T06:07:29.124Z,90.97
2018-01-24T06:08:33.226Z,91.07
2018-01-24T06:09:37.341Z,91.07
2018-01-24T06:10:41.840Z,91.06
2018-01-24T06:11:45.991Z,91.11
2018-01-24T06:12:51.098Z,91.08
2018-01-24T06:13:55.294Z,90.97
2018-01-24T06:15:00.023Z,90.93
2018-01-24T06:16:04.478Z,90.90
2018-01-24T06:17:08.931Z,90.80
2018-01-24T06:18:13.032Z,90.90
2018-01-24T06:19:17.145Z,90.74
2018-01-24T06:20:21.309Z,90.61
2018-01-24T06:21:25.411Z,90.56
2018-01-24T06:22:29.568Z,90.68
2018-01-24T06:23:33.676Z,90.91
2018-01-24T06:24:37.802Z,90.71
2018-01-24T06:25:41.911Z,90.71
2018-01-24T06:26:46.021Z,90.75
2018-01-24T06:27:50.153Z,90.72
2018-01-24T06:28:54.340Z,90.84
2018-01-24T06:29:59.563Z,90.84
2018-01-24T06:31:03.861Z,90.77
2018-01-24T06:32:08.205Z,90.94
2018-01-24T06:33:12.625Z,91.01
2018-01-24T06:34:17.342Z,90.89
2018-01-24T06:35:21.620Z,90.96
2018-01-24T06:36:26.626Z,91.03
2018-01-24T06:37:30.852Z,90.82
2018-01-24T06:38:35.235Z,90.82
2018-01-24T06:39:39.665Z,90.69
2018-01-24T06:40:43.821Z,90.73
2018-01-24T06:41:48.476Z,90.23
2018-01-24T06:42:53.097Z,89.79
2018-01-24T06:43:57.200Z,90.08
2018-01-24T06:45:03.066Z,90.41
2018-01-24T06:46:09.532Z,90.65
2018-01-24T06:47:13.655Z,90.42
2018-01-24T06:48:17.769Z,90.54
2018-01-24T06:49:22.157Z,90.74
2018-01-24T06:50:26.268Z,90.94
2018-01-24T06:51:30.435Z,90.95
2018-01-24T06:52:34.553Z,91.13
2018-01-24T06:53:38.734Z,91.05
2018-01-24T06:54:43.124Z,91.12
2018-01-24T06:55:47.200Z,91.04
2018-01-24T06:56:51.336Z,90.96
2018-01-24T06:57:55.456Z,90.84
2018-01-24T06:58:59.563Z,91.00
2018-01-24T07:00:05.544Z,90.93
2018-01-24T07:01:09.658Z,90.75
2018-01-24T07:02:13.836Z,90.81
2018-01-24T07:03:17.933Z,91.04
2018-01-24T07:04:22.141Z,90.90
2018-01-24T07:05:26.371Z,90.91
2018-01-24T07:06:30.976Z,90.82
2018-01-24T07:07:35.116Z,90.74
2018-01-24T07:08:39.212Z,90.75
2018-01-24T07:09:43.428Z,90.82
2018-01-24T07:10:48.265Z,90.58
2018-01-24T07:11:56.872Z,90.40
2018-01-24T07:13:12.850Z,90.42
2018-01-24T07:14:50.239Z,90.40
2018-01-24T07:15:54.543Z,90.53
2018-01-24T07:16:58.674Z,90.68
2018-01-24T07:18:02.836Z,90.66
2018-01-24T07:19:06.948Z,90.68
2018-01-24T07:20:11.137Z,90.59
2018-01-24T07:21:15.336Z,90.67
2018-01-24T07:22:19.415Z,90.82
2018-01-24T07:23:23.732Z,91.04
2018-01-24T07:24:27.864Z,90.86
2018-01-24T07:25:32.276Z,90.64
2018-01-24T07:26:36.452Z,90.82
2018-01-24T07:27:40.540Z,91.06
2018-01-24T07:28:44.741Z,91.30
2018-01-24T07:29:48.864Z,91.53
2018-01-24T07:30:52.974Z,91.60
2018-01-24T07:31:57.964Z,91.85
2018-01-24T07:33:02.101Z,91.99
2018-01-24T07:34:06.300Z,92.13
2018-01-24T07:35:10.500Z,92.18
2018-01-24T07:36:14.948Z,92.21
2018-01-24T07:37:19.105Z,92.42
2018-01-24T07:38:23.381Z,92.66
2018-01-24T07:39:27.513Z,92.70
2018-01-24T07:40:31.616Z,92.55
2018-01-24T07:41:35.724Z,92.48
2018-01-24T07:42:40.140Z,92.32
2018-01-24T07:43:44.384Z,92.39
2018-01-24T07:44:48.765Z,92.46
2018-01-24T07:45:53.283Z,92.47
2018-01-24T07:46:58.267Z,92.43
2018-01-24T07:48:02.469Z,92.46
2018-01-24T07:49:06.564Z,92.28
2018-01-24T07:50:10.679Z,92.13
2018-01-24T07:51:14.796Z,92.19
2018-01-24T07:52:18.881Z,92.29
2018-01-24T07:53:23.088Z,92.45
2018-01-24T07:54:27.264Z,92.48
2018-01-24T07:55:31.711Z,92.29
2018-01-24T07:56:35.947Z,92.10
2018-01-24T07:57:40.096Z,92.00
2018-01-24T07:58:44.316Z,92.12
2018-01-24T07:59:48.440Z,92.06
2018-01-24T08:00:52.913Z,92.14
2018-01-24T08:01:58.149Z,91.98
2018-01-24T08:03:02.212Z,91.87
2018-01-24T08:04:06.696Z,91.68
2018-01-24T08:05:10.899Z,91.93
2018-01-24T08:06:15.199Z,91.83
2018-01-24T08:07:19.298Z,91.89
2018-01-24T08:08:23.724Z,91.89
2018-01-24T08:09:27.885Z,91.89
2018-01-24T08:10:32.000Z,92.10
2018-01-24T08:11:36.185Z,92.22
2018-01-24T08:12:40.304Z,91.74
2018-01-24T08:13:44.412Z,91.57
2018-01-24T08:14:49.462Z,91.54
2018-01-24T08:15:53.780Z,91.58
2018-01-24T08:16:58.023Z,91.73
2018-01-24T08:18:02.392Z,91.57
2018-01-24T08:19:06.638Z,91.72
2018-01-24T08:20:10.732Z,91.79
2018-01-24T08:21:16.863Z,91.69
2018-01-24T08:22:21.057Z,91.67
2018-01-24T08:23:25.161Z,91.78
2018-01-24T08:24:29.288Z,91.72
2018-01-24T08:25:33.392Z,91.53
2018-01-24T08:26:37.629Z,91.43
2018-01-24T08:27:42.064Z,91.39
2018-01-24T08:28:47.312Z,91.43
2018-01-24T08:29:51.487Z,91.37
2018-01-24T08:30:55.723Z,91.39
2018-01-24T08:32:00.188Z,91.40
2018-01-24T08:33:04.563Z,91.23
2018-01-24T08:34:09.413Z,91.16
2018-01-24T08:35:13.580Z,90.99
2018-01-24T08:36:17.737Z,90.85
2018-01-24T08:37:22.368Z,90.78
2018-01-24T08:38:26.572Z,90.67
2018-01-24T08:39:30.996Z,90.41
2018-01-24T08:40:35.144Z,90.23
2018-01-24T08:41:39.258Z,90.12
2018-01-24T08:42:43.449Z,89.98
2018-01-24T08:43:48.179Z,89.74
2018-01-24T08:44:53.014Z,89.55
2018-01-24T08:45:58.449Z,89.68
2018-01-24T08:47:02.921Z,89.68
2018-01-24T08:48:07.449Z,89.78
2018-01-24T08:49:11.624Z,89.82
2018-01-24T08:50:15.939Z,89.73
2018-01-24T08:51:20.030Z,89.79
2018-01-24T08:52:24.641Z,89.62
2018-01-24T08:53:28.836Z,89.58
2018-01-24T08:54:33.000Z,89.72
2018-01-24T08:55:37.218Z,89.70
2018-01-24T08:56:41.382Z,89.77
2018-01-24T08:57:45.484Z,89.57
2018-01-24T08:58:50.978Z,89.35
2018-01-24T08:59:55.881Z,89.26
2018-01-24T09:01:00.244Z,89.23
2018-01-24T09:02:04.362Z,89.37
2018-01-24T09:03:08.531Z,89.38
2018-01-24T09:04:12.792Z,89.24
2018-01-24T09:05:16.899Z,89.08
2018-01-24T09:06:20.970Z,89.19
2018-01-24T09:07:25.158Z,89.04
2018-01-24T09:08:29.275Z,89.24
2018-01-24T09:09:33.356Z,89.04
2018-01-24T09:10:37.490Z,88.99
2018-01-24T09:11:43.179Z,89.14
2018-01-24T09:12:47.279Z,88.96
2018-01-24T09:13:52.144Z,88.68
2018-01-24T09:14:56.296Z,88.50
2018-01-24T09:16:00.654Z,88.51
2018-01-24T09:17:04.817Z,88.49
2018-01-24T09:18:09.241Z,88.57
2018-01-24T09:19:13.336Z,88.59
2018-01-24T09:20:18.379Z,88.47
2018-01-24T09:21:22.643Z,88.54
2018-01-24T09:22:26.727Z,88.56
2018-01-24T09:23:30.824Z,88.15
2018-01-24T09:24:35.318Z,88.30
2018-01-24T09:25:40.437Z,88.16
2018-01-24T09:26:44.724Z,88.03
2018-01-24T09:27:48.882Z,87.78
2018-01-24T09:28:52.993Z,87.78
2018-01-24T09:29:57.111Z,87.39
2018-01-24T09:31:02.160Z,87.38
2018-01-24T09:32:06.324Z,87.20
2018-01-24T09:33:10.507Z,87.14
2018-01-24T09:34:14.608Z,87.30
2018-01-24T09:35:18.745Z,87.19
2018-01-24T09:36:22.955Z,87.40
2018-01-24T09:37:28.422Z,87.08
2018-01-24T09:38:32.652Z,87.01
2018-01-24T09:39:36.870Z,86.96
2018-01-24T09:40:41.022Z,86.97
2018-01-24T09:41:45.175Z,86.82
2018-01-24T09:42:49.329Z,86.90
2018-01-24T09:43:55.249Z,86.61
2018-01-24T09:44:59.401Z,86.20
2018-01-24T09:46:05.017Z,86.40
2018-01-24T09:47:10.172Z,86.04
2018-01-24T09:48:14.287Z,85.93
2018-01-24T09:49:18.512Z,85.64
2018-01-24T09:50:22.643Z,85.57
2018-01-24T09:51:26.782Z,85.78
2018-01-24T09:52:30.925Z,85.63
2018-01-24T09:53:35.144Z,85.43
2018-01-24T09:54:39.300Z,85.02
2018-01-24T09:55:43.413Z,84.86
2018-01-24T09:56:47.888Z,85.03
2018-01-24T09:57:52.118Z,84.97
2018-01-24T09:58:56.291Z,84.63
2018-01-24T10:00:00.475Z,84.89
2018-01-24T10:01:05.712Z,84.78
2018-01-24T10:02:09.832Z,84.81
2018-01-24T10:03:14.973Z,84.50
2018-01-24T10:04:19.148Z,83.70
2018-01-24T10:06:57.900Z,83.91
2018-01-24T10:08:02.179Z,83.95
2018-01-24T10:09:06.470Z,84.02
2018-01-24T10:10:11.936Z,83.68
2018-01-24T10:11:16.209Z,83.21
2018-01-24T10:12:20.409Z,82.89
2018-01-24T10:13:24.624Z,82.82
2018-01-24T10:14:28.779Z,83.05
2018-01-24T10:15:33.523Z,82.69
2018-01-24T10:16:37.933Z,82.69
2018-01-24T10:17:42.894Z,82.34
2018-01-24T10:18:47.090Z,82.73
2018-01-24T10:19:51.286Z,82.39
2018-01-24T10:20:56.627Z,82.53
2018-01-24T10:22:01.111Z,82.46
2018-01-24T10:23:05.291Z,82.22
2018-01-24T10:24:09.467Z,82.32
2018-01-24T10:25:13.672Z,82.37
2018-01-24T10:26:17.938Z,82.58
2018-01-24T10:27:22.091Z,82.60
2018-01-24T10:28:26.570Z,83.02
2018-01-24T10:29:30.760Z,82.29
2018-01-24T10:30:35.312Z,82.32
2018-01-24T10:31:39.556Z,82.02
2018-01-24T10:32:43.792Z,81.62
2018-01-24T10:33:48.003Z,82.04
2018-01-24T10:34:53.504Z,81.33
2018-01-24T10:35:58.491Z,81.42
2018-01-24T10:37:02.746Z,81.70
2018-01-24T10:38:06.927Z,81.64
2018-01-24T10:39:11.173Z,81.72
2018-01-24T10:40:15.374Z,81.55
2018-01-24T10:41:20.471Z,81.75
2018-01-24T10:42:24.754Z,81.50
2018-01-24T10:43:28.979Z,82.05
2018-01-24T10:44:33.121Z,81.92
2018-01-24T10:45:38.042Z,81.91
2018-01-24T10:46:42.278Z,81.95
2018-01-24T10:47:46.647Z,81.97
2018-01-24T10:48:50.896Z,82.12
2018-01-24T10:49:55.109Z,82.06
2018-01-24T10:50:59.622Z,82.04
2018-01-24T10:52:04.653Z,82.28
2018-01-24T10:53:08.888Z,82.16
2018-01-24T10:54:13.165Z,82.04
2018-01-24T10:55:17.524Z,82.34
2018-01-24T10:56:21.736Z,81.87
2018-01-24T10:57:26.700Z,81.87
2018-01-24T10:58:31.166Z,81.84
2018-01-24T10:59:35.317Z,81.89
2018-01-24T11:00:39.876Z,82.14
2018-01-24T11:01:44.289Z,82.12
2018-01-24T11:02:49.462Z,82.22
2018-01-24T11:03:53.956Z,82.16
2018-01-24T11:04:58.674Z,82.17
2018-01-24T11:06:02.886Z,82.03
2018-01-24T11:07:07.182Z,82.26
2018-01-24T11:08:11.387Z,81.86
2018-01-24T11:09:15.564Z,81.96
2018-01-24T11:10:20.138Z,81.76
2018-01-24T11:11:24.423Z,81.68
2018-01-24T11:12:28.603Z,81.68
2018-01-24T11:13:32.803Z,81.64
2018-01-24T11:14:37.019Z,81.56
2018-01-24T11:15:41.759Z,81.68
2018-01-24T11:16:45.942Z,81.74
2018-01-24T11:17:50.208Z,81.80
2018-01-24T11:18:55.435Z,82.09
2018-01-24T11:20:00.658Z,81.80
2018-01-24T11:21:04.884Z,81.81
2018-01-24T11:22:09.282Z,81.91
2018-01-24T11:23:13.735Z,81.99
2018-01-24T11:24:18.599Z,81.85
2018-01-24T11:25:22.847Z,81.35
2018-01-24T11:26:27.175Z,81.31
2018-01-24T11:27:31.410Z,81.30
2018-01-24T11:28:36.012Z,81.52
2018-01-24T11:29:40.348Z,81.34
2018-01-24T11:30:44.733Z,80.99
2018-01-24T11:31:49.067Z,81.11
2018-01-24T11:32:53.257Z,81.17
2018-01-24T11:33:58.418Z,81.13
2018-01-24T11:35:03.542Z,81.09
2018-01-24T11:36:07.707Z,81.13
2018-01-24T11:37:12.014Z,81.04
2018-01-24T11:38:16.171Z,80.93
2018-01-24T11:39:20.395Z,80.93
2018-01-24T11:40:24.688Z,80.98
2018-01-24T11:41:28.913Z,80.76
2018-01-24T11:42:33.098Z,80.65
2018-01-24T11:43:37.329Z,80.58
2018-01-24T11:44:41.607Z,80.34
2018-01-24T11:45:45.997Z,80.55
2018-01-24T11:46:50.174Z,80.61
2018-01-24T11:47:54.363Z,80.54
2018-01-24T11:48:59.283Z,80.30
2018-01-24T11:50:03.543Z,80.41
2018-01-24T11:51:08.459Z,80.83
2018-01-24T11:52:12.578Z,80.67
2018-01-24T11:53:17.145Z,80.03
2018-01-24T11:54:21.367Z,80.10
2018-01-24T11:55:25.655Z,80.25
2018-01-24T11:56:29.837Z,80.04
2018-01-24T11:57:34.005Z,80.09
2018-01-24T11:58:38.326Z,80.00
2018-01-24T11:59:42.830Z,79.84
2018-01-24T12:00:47.302Z,80.11
2018-01-24T12:01:52.050Z,79.59
2018-01-24T12:02:56.735Z,79.75
2018-01-24T12:04:00.984Z,79.70
2018-01-24T12:05:05.257Z,79.54
2018-01-24T12:06:11.507Z,79.59
2018-01-24T12:07:15.879Z,79.71
2018-01-24T12:08:20.139Z,79.48
2018-01-24T12:09:24.359Z,79.21
2018-01-24T12:10:28.646Z,79.25
2018-01-24T12:11:32.961Z,79.23
2018-01-24T12:12:38.350Z,79.04
2018-01-24T12:13:42.714Z,78.74
2018-01-24T12:14:47.083Z,78.92
2018-01-24T12:15:51.490Z,78.72
2018-01-24T12:16:55.750Z,78.57
2018-01-24T12:18:00.278Z,78.66
2018-01-24T12:19:08.256Z,78.64
2018-01-24T12:20:12.538Z,78.61
2018-01-24T12:21:16.752Z,79.17
2018-01-24T12:22:21.147Z,78.50
2018-01-24T12:23:25.414Z,78.26
2018-01-24T12:24:30.102Z,78.31
2018-01-24T12:25:34.408Z,78.63
2018-01-24T12:26:38.728Z,78.88
2018-01-24T12:27:42.923Z,78.26
2018-01-24T12:28:47.198Z,78.20
2018-01-24T12:29:51.430Z,78.18
2018-01-24T12:30:56.224Z,78.29
2018-01-24T12:32:00.956Z,78.17
2018-01-24T12:33:05.318Z,77.85
2018-01-24T12:34:09.540Z,77.83
2018-01-24T12:35:14.150Z,77.95
2018-01-24T12:36:18.417Z,77.99
2018-01-24T12:37:22.666Z,77.95
2018-01-24T12:38:26.952Z,77.73
2018-01-24T12:39:31.230Z,78.18
2018-01-24T12:40:35.898Z,77.94
2018-01-24T12:41:40.630Z,77.73
2018-01-24T12:42:45.087Z,78.04
2018-01-24T12:43:49.485Z,77.96
2018-01-24T12:44:54.374Z,78.10
2018-01-24T12:45:59.629Z,77.89
2018-01-24T12:47:04.633Z,78.11
2018-01-24T12:48:10.390Z,78.04
2018-01-24T12:49:15.313Z,77.63
2018-01-24T12:50:19.590Z,77.57
2018-01-24T12:51:24.014Z,77.55
2018-01-24T12:52:28.190Z,77.56
2018-01-24T12:53:32.448Z,77.80
2018-01-24T12:54:37.325Z,77.97
2018-01-24T12:55:41.803Z,78.03
2018-01-24T12:56:46.155Z,77.77
2018-01-24T12:57:50.525Z,78.21
2018-01-24T12:58:55.789Z,78.39
2018-01-24T13:00:01.394Z,78.79
2018-01-24T13:01:06.667Z,79.01
2018-01-24T13:02:11.627Z,78.82
2018-01-24T13:03:15.947Z,78.80
2018-01-24T13:04:20.615Z,78.79
2018-01-24T13:05:25.318Z,79.17
2018-01-24T13:06:29.910Z,79.24
2018-01-24T13:07:34.172Z,79.25
2018-01-24T13:08:38.441Z,79.30
2018-01-24T13:09:46.337Z,79.16
2018-01-24T13:10:50.636Z,79.28
2018-01-24T13:11:55.016Z,79.14
2018-01-24T13:12:59.402Z,78.98
2018-01-24T13:14:04.992Z,79.18
2018-01-24T13:15:09.471Z,78.98
2018-01-24T13:16:14.416Z,78.82
2018-01-24T13:17:19.752Z,78.59
2018-01-24T13:18:24.196Z,78.84
2018-01-24T13:19:28.907Z,78.73
2018-01-24T13:20:34.581Z,78.94
2018-01-24T13:21:39.895Z,79.08
2018-01-24T13:22:44.145Z,78.94
2018-01-24T13:23:48.523Z,79.15
2018-01-24T13:24:52.794Z,79.25
2018-01-24T13:25:57.971Z,79.54
2018-01-24T13:27:03.746Z,79.75
2018-01-24T13:28:09.582Z,79.67
2018-01-24T13:29:15.531Z,79.67
2018-01-24T13:30:20.193Z,79.45
2018-01-24T13:31:24.868Z,79.42
2018-01-24T13:32:29.789Z,79.32
2018-01-24T13:33:34.317Z,79.68
2018-01-24T13:34:38.680Z,79.64
2018-01-24T13:35:43.153Z,79.90
2018-01-24T13:36:47.475Z,79.91
2018-01-24T13:37:51.891Z,79.69
2018-01-24T13:38:58.885Z,79.47
2018-01-24T13:40:03.376Z,79.76
2018-01-24T13:41:08.815Z,79.41
2018-01-24T13:42:13.431Z,79.47
2018-01-24T13:43:18.087Z,79.40
2018-01-24T13:44:22.675Z,79.43
2018-01-24T13:45:27.865Z,79.38
2018-01-24T13:46:32.480Z,79.31
2018-01-24T13:47:37.797Z,79.25
2018-01-24T13:48:42.479Z,79.29
2018-01-24T13:49:47.319Z,79.19
2018-01-24T13:50:51.718Z,78.79
2018-01-24T13:51:57.296Z,78.87
2018-01-24T13:53:01.684Z,79.18